AWQ543 YBCS-WADD
Flight info
| Callsign | AWQ543 |
|---|---|
| Flight time | 4h 38m |
| Altitude | 32000 |
| Route | NONUM DCT PUNIT J61 DUMAV/N0476F340 J61 DN M766 GABIT |
| Aircraft | A320/M-SDE3FGHIRWY/LB1 |
Departure
| Time | 2026-05-09 02:11 |
|---|---|
| Airport | Cairns International Airport (YBCS) |
Arrival
| Time | 2026-05-09 06:50 |
|---|---|
| Airport | Denpasar I Gusti Ngurah Rai International Airport (WADD) |
| Time | Latitude | Longitude | Altitude | Speed | Heading |
|---|---|---|---|---|---|
| 2026-05-09 01:38 | -16.87213 | 145.75532 | 16 ft | 0 kts | 156° |
| 2026-05-09 02:02 | -16.87199 | 145.75526 | 16 ft | 4 kts | 158° |
| 2026-05-09 02:02 | -16.87173 | 145.75517 | 16 ft | 4 kts | 163° |
| 2026-05-09 02:02 | -16.87147 | 145.75511 | 16 ft | 4 kts | 179° |
| 2026-05-09 02:02 | -16.87124 | 145.75516 | 16 ft | 4 kts | 232° |
| 2026-05-09 02:03 | -16.87121 | 145.75520 | 16 ft | 0 kts | 246° |
| 2026-05-09 02:05 | -16.87130 | 145.75497 | 17 ft | 6 kts | 246° |
| 2026-05-09 02:05 | -16.87157 | 145.75436 | 16 ft | 10 kts | 246° |
| 2026-05-09 02:05 | -16.87162 | 145.75372 | 16 ft | 8 kts | 296° |
| 2026-05-09 02:06 | -16.87113 | 145.75325 | 16 ft | 10 kts | 302° |
| 2026-05-09 02:06 | -16.87125 | 145.75252 | 16 ft | 15 kts | 246° |
| 2026-05-09 02:06 | -16.87174 | 145.75137 | 16 ft | 18 kts | 246° |
| 2026-05-09 02:07 | -16.87242 | 145.74975 | 16 ft | 3 kts | 246° |
| 2026-05-09 02:07 | -16.87267 | 145.74917 | 16 ft | 13 kts | 247° |
| 2026-05-09 02:07 | -16.87235 | 145.74849 | 16 ft | 10 kts | 331° |
| 2026-05-09 02:07 | -16.87176 | 145.74821 | 16 ft | 9 kts | 336° |
| 2026-05-09 02:08 | -16.87090 | 145.74784 | 16 ft | 14 kts | 336° |
| 2026-05-09 02:08 | -16.87050 | 145.74713 | 16 ft | 12 kts | 263° |
| 2026-05-09 02:08 | -16.87082 | 145.74623 | 14 ft | 15 kts | 263° |
| 2026-05-09 02:08 | -16.87006 | 145.74544 | 14 ft | 20 kts | 336° |
| 2026-05-09 02:09 | -16.86870 | 145.74483 | 15 ft | 20 kts | 338° |
| 2026-05-09 02:09 | -16.86749 | 145.74428 | 15 ft | 17 kts | 336° |
| 2026-05-09 02:09 | -16.86643 | 145.74407 | 17 ft | 14 kts | 14° |
| 2026-05-09 02:09 | -16.86583 | 145.74396 | 19 ft | 7 kts | 303° |
| 2026-05-09 02:10 | -16.86595 | 145.74359 | 17 ft | 5 kts | 211° |
| 2026-05-09 02:10 | -16.86618 | 145.74370 | 17 ft | 3 kts | 146° |
| 2026-05-09 02:10 | -16.86631 | 145.74375 | 19 ft | 1 kts | 156° |
| 2026-05-09 02:10 | -16.86704 | 145.74409 | 17 ft | 39 kts | 156° |
| 2026-05-09 02:11 | -16.87171 | 145.74620 | 16 ft | 104 kts | 157° |
| 2026-05-09 02:11 | -16.88001 | 145.74997 | 17 ft | 154 kts | 156° |
| 2026-05-09 02:11 | -16.89061 | 145.75516 | 291 ft | 172 kts | 149° |
| 2026-05-09 02:11 | -16.89928 | 145.76371 | 947 ft | 174 kts | 124° |
| 2026-05-09 02:12 | -16.90339 | 145.77564 | 1681 ft | 180 kts | 99° |
| 2026-05-09 02:12 | -16.90315 | 145.78450 | 1997 ft | 189 kts | 82° |
| 2026-05-09 02:12 | -16.89391 | 145.80061 | 2639 ft | 207 kts | 45° |
| 2026-05-09 02:12 | -16.87983 | 145.80635 | 2856 ft | 237 kts | 4° |
| 2026-05-09 02:13 | -16.86867 | 145.80421 | 2941 ft | 258 kts | 337° |
| 2026-05-09 02:13 | -16.85450 | 145.79165 | 3175 ft | 283 kts | 300° |
| 2026-05-09 02:13 | -16.84745 | 145.77222 | 3659 ft | 291 kts | 279° |
| 2026-05-09 02:13 | -16.84574 | 145.74430 | 4561 ft | 289 kts | 253° |
| 2026-05-09 02:14 | -16.84990 | 145.73117 | 5016 ft | 287 kts | 243° |
| 2026-05-09 02:14 | -16.85750 | 145.71167 | 5659 ft | 293 kts | 249° |
| 2026-05-09 02:14 | -16.86302 | 145.69099 | 6300 ft | 298 kts | 255° |
| 2026-05-09 02:14 | -16.86722 | 145.66963 | 6962 ft | 302 kts | 258° |
| 2026-05-09 02:15 | -16.87094 | 145.64790 | 7643 ft | 305 kts | 258° |
| 2026-05-09 02:15 | -16.87465 | 145.62605 | 8305 ft | 306 kts | 258° |
| 2026-05-09 02:15 | -16.87862 | 145.60411 | 8924 ft | 309 kts | 258° |
| 2026-05-09 02:15 | -16.88281 | 145.58201 | 9543 ft | 311 kts | 258° |
| 2026-05-09 02:16 | -16.88715 | 145.55986 | 10172 ft | 313 kts | 258° |
| 2026-05-09 02:16 | -16.89170 | 145.53701 | 10358 ft | 331 kts | 258° |
| 2026-05-09 02:16 | -16.89656 | 145.51281 | 10487 ft | 349 kts | 258° |
| 2026-05-09 02:16 | -16.90167 | 145.48736 | 10618 ft | 366 kts | 258° |
| 2026-05-09 02:17 | -16.90686 | 145.46074 | 10757 ft | 382 kts | 261° |
| 2026-05-09 02:17 | -16.90863 | 145.43262 | 10955 ft | 394 kts | 272° |
| 2026-05-09 02:17 | -16.90501 | 145.40407 | 11348 ft | 399 kts | 284° |
| 2026-05-09 02:17 | -16.89603 | 145.37664 | 11865 ft | 400 kts | 295° |
| 2026-05-09 02:18 | -16.88259 | 145.35123 | 12404 ft | 400 kts | 301° |
| 2026-05-09 02:18 | -16.86842 | 145.32620 | 12927 ft | 401 kts | 301° |
| 2026-05-09 02:18 | -16.85425 | 145.30106 | 13438 ft | 402 kts | 301° |
| 2026-05-09 02:18 | -16.84005 | 145.27584 | 13933 ft | 403 kts | 301° |
| 2026-05-09 02:19 | -16.82579 | 145.25057 | 14400 ft | 405 kts | 301° |
| 2026-05-09 02:19 | -16.81144 | 145.22519 | 14864 ft | 407 kts | 301° |
| 2026-05-09 02:19 | -16.79704 | 145.19968 | 15344 ft | 408 kts | 301° |
| 2026-05-09 02:19 | -16.78257 | 145.17409 | 15799 ft | 410 kts | 301° |
| 2026-05-09 02:20 | -16.76807 | 145.14840 | 16232 ft | 411 kts | 301° |
| 2026-05-09 02:20 | -16.75358 | 145.12265 | 16665 ft | 412 kts | 300° |
| 2026-05-09 02:20 | -16.73899 | 145.09677 | 17042 ft | 415 kts | 301° |
| 2026-05-09 02:20 | -16.72431 | 145.07082 | 17459 ft | 416 kts | 301° |
| 2026-05-09 02:21 | -16.70955 | 145.04480 | 17837 ft | 417 kts | 301° |
| 2026-05-09 02:21 | -16.69495 | 145.01905 | 18218 ft | 419 kts | 301° |
| 2026-05-09 02:21 | -16.68009 | 144.99283 | 18544 ft | 421 kts | 301° |
| 2026-05-09 02:21 | -16.66518 | 144.96649 | 18891 ft | 423 kts | 300° |
| 2026-05-09 02:22 | -16.65020 | 144.94006 | 19220 ft | 424 kts | 300° |
| 2026-05-09 02:22 | -16.63570 | 144.91320 | 19544 ft | 425 kts | 295° |
| 2026-05-09 02:22 | -16.62514 | 144.88442 | 19855 ft | 427 kts | 286° |
| 2026-05-09 02:22 | -16.61727 | 144.85452 | 20168 ft | 428 kts | 285° |
| 2026-05-09 02:23 | -16.60943 | 144.82455 | 20462 ft | 429 kts | 285° |
| 2026-05-09 02:23 | -16.60153 | 144.79449 | 20743 ft | 431 kts | 286° |
| 2026-05-09 02:23 | -16.59356 | 144.76438 | 21018 ft | 432 kts | 286° |
| 2026-05-09 02:23 | -16.58553 | 144.73415 | 21272 ft | 433 kts | 286° |
| 2026-05-09 02:24 | -16.57748 | 144.70389 | 21528 ft | 434 kts | 286° |
| 2026-05-09 02:24 | -16.56946 | 144.67352 | 21777 ft | 435 kts | 286° |
| 2026-05-09 02:24 | -16.56141 | 144.64309 | 22007 ft | 436 kts | 286° |
| 2026-05-09 02:24 | -16.55333 | 144.61257 | 22227 ft | 437 kts | 286° |
| 2026-05-09 02:25 | -16.54521 | 144.58200 | 22441 ft | 438 kts | 286° |
| 2026-05-09 02:25 | -16.53708 | 144.55139 | 22660 ft | 439 kts | 286° |
| 2026-05-09 02:25 | -16.52893 | 144.52070 | 22847 ft | 440 kts | 285° |
| 2026-05-09 02:25 | -16.52076 | 144.48989 | 23041 ft | 442 kts | 286° |
| 2026-05-09 02:26 | -16.51255 | 144.45901 | 23223 ft | 442 kts | 286° |
| 2026-05-09 02:26 | -16.50432 | 144.42809 | 23397 ft | 443 kts | 286° |
| 2026-05-09 02:26 | -16.49607 | 144.39711 | 23559 ft | 444 kts | 286° |
| 2026-05-09 02:26 | -16.48781 | 144.36611 | 23735 ft | 445 kts | 286° |
| 2026-05-09 02:27 | -16.47953 | 144.33501 | 23879 ft | 446 kts | 286° |
| 2026-05-09 02:27 | -16.47123 | 144.30389 | 24033 ft | 447 kts | 286° |
| 2026-05-09 02:27 | -16.46292 | 144.27268 | 24192 ft | 447 kts | 286° |
| 2026-05-09 02:27 | -16.45460 | 144.24144 | 24333 ft | 448 kts | 286° |
| 2026-05-09 02:28 | -16.44635 | 144.21054 | 24484 ft | 449 kts | 286° |
| 2026-05-09 02:28 | -16.43783 | 144.17879 | 24627 ft | 449 kts | 286° |
| 2026-05-09 02:28 | -16.42953 | 144.14783 | 24758 ft | 450 kts | 286° |
| 2026-05-09 02:28 | -16.42112 | 144.11641 | 24898 ft | 450 kts | 286° |
| 2026-05-09 02:29 | -16.41270 | 144.08501 | 25031 ft | 451 kts | 286° |
| 2026-05-09 02:29 | -16.40421 | 144.05352 | 25157 ft | 452 kts | 286° |
| 2026-05-09 02:29 | -16.39572 | 144.02198 | 25289 ft | 452 kts | 286° |
| 2026-05-09 02:29 | -16.38726 | 143.99047 | 25409 ft | 453 kts | 286° |
| 2026-05-09 02:30 | -16.37877 | 143.95891 | 25533 ft | 453 kts | 286° |
| 2026-05-09 02:30 | -16.37030 | 143.92732 | 25659 ft | 453 kts | 286° |
| 2026-05-09 02:30 | -16.36181 | 143.89568 | 25785 ft | 453 kts | 286° |
| 2026-05-09 02:30 | -16.35330 | 143.86412 | 25924 ft | 453 kts | 286° |
| 2026-05-09 02:31 | -16.34478 | 143.83251 | 26066 ft | 453 kts | 286° |
| 2026-05-09 02:31 | -16.33630 | 143.80098 | 26208 ft | 453 kts | 286° |
| 2026-05-09 02:31 | -16.32779 | 143.76944 | 26351 ft | 452 kts | 286° |
| 2026-05-09 02:31 | -16.31926 | 143.73795 | 26511 ft | 451 kts | 286° |
| 2026-05-09 02:32 | -16.31073 | 143.70655 | 26665 ft | 450 kts | 286° |
| 2026-05-09 02:32 | -16.30224 | 143.67525 | 26820 ft | 450 kts | 286° |
| 2026-05-09 02:32 | -16.29377 | 143.64392 | 26990 ft | 449 kts | 286° |
| 2026-05-09 02:32 | -16.28533 | 143.61265 | 27141 ft | 448 kts | 286° |
| 2026-05-09 02:33 | -16.27690 | 143.58145 | 27294 ft | 448 kts | 286° |
| 2026-05-09 02:33 | -16.26848 | 143.55030 | 27451 ft | 447 kts | 286° |
| 2026-05-09 02:33 | -16.26004 | 143.51921 | 27619 ft | 446 kts | 286° |
| 2026-05-09 02:33 | -16.25162 | 143.48822 | 27792 ft | 445 kts | 286° |
| 2026-05-09 02:34 | -16.24323 | 143.45723 | 27959 ft | 444 kts | 286° |
| 2026-05-09 02:34 | -16.23485 | 143.42632 | 28122 ft | 444 kts | 286° |
| 2026-05-09 02:34 | -16.22645 | 143.39543 | 28307 ft | 443 kts | 286° |
| 2026-05-09 02:34 | -16.21808 | 143.36468 | 28461 ft | 441 kts | 286° |
| 2026-05-09 02:35 | -16.20974 | 143.33402 | 28633 ft | 441 kts | 286° |
| 2026-05-09 02:35 | -16.20138 | 143.30334 | 28784 ft | 440 kts | 286° |
| 2026-05-09 02:35 | -16.19304 | 143.27275 | 28974 ft | 439 kts | 286° |
| 2026-05-09 02:35 | -16.18472 | 143.24227 | 29135 ft | 437 kts | 286° |
| 2026-05-09 02:36 | -16.17641 | 143.21182 | 29305 ft | 437 kts | 286° |
| 2026-05-09 02:36 | -16.16813 | 143.18144 | 29459 ft | 436 kts | 286° |
| 2026-05-09 02:36 | -16.15986 | 143.15110 | 29641 ft | 435 kts | 286° |
| 2026-05-09 02:36 | -16.15162 | 143.12082 | 29807 ft | 435 kts | 286° |
| 2026-05-09 02:37 | -16.14338 | 143.09059 | 29973 ft | 434 kts | 286° |
| 2026-05-09 02:37 | -16.13510 | 143.06042 | 30152 ft | 433 kts | 286° |
| 2026-05-09 02:37 | -16.12680 | 143.03033 | 30320 ft | 432 kts | 286° |
| 2026-05-09 02:37 | -16.11855 | 143.00038 | 30490 ft | 431 kts | 286° |
| 2026-05-09 02:38 | -16.11035 | 142.97043 | 30635 ft | 431 kts | 286° |
| 2026-05-09 02:38 | -16.10215 | 142.94049 | 30794 ft | 430 kts | 286° |
| 2026-05-09 02:38 | -16.09395 | 142.91060 | 30960 ft | 429 kts | 287° |
| 2026-05-09 02:38 | -16.08576 | 142.88081 | 31118 ft | 428 kts | 286° |
| 2026-05-09 02:39 | -16.07768 | 142.85147 | 31284 ft | 427 kts | 287° |
| 2026-05-09 02:39 | -16.06950 | 142.82179 | 31441 ft | 427 kts | 287° |
| 2026-05-09 02:39 | -16.06134 | 142.79215 | 31592 ft | 426 kts | 287° |
| 2026-05-09 02:39 | -16.05322 | 142.76252 | 31759 ft | 426 kts | 287° |
| 2026-05-09 02:40 | -16.04513 | 142.73301 | 31949 ft | 424 kts | 287° |
| 2026-05-09 02:40 | -16.02888 | 142.67403 | 32054 ft | 425 kts | 287° |
| 2026-05-09 02:41 | -16.01254 | 142.61496 | 32054 ft | 425 kts | 287° |
| 2026-05-09 02:41 | -15.99616 | 142.55594 | 32052 ft | 425 kts | 287° |
| 2026-05-09 02:42 | -15.97978 | 142.49677 | 32054 ft | 427 kts | 287° |
| 2026-05-09 02:42 | -15.96343 | 142.43741 | 32048 ft | 427 kts | 287° |
| 2026-05-09 02:43 | -15.94701 | 142.37809 | 32056 ft | 428 kts | 287° |
| 2026-05-09 02:43 | -15.93048 | 142.31874 | 32065 ft | 427 kts | 287° |
| 2026-05-09 02:44 | -15.91397 | 142.25944 | 32066 ft | 427 kts | 287° |
| 2026-05-09 02:44 | -15.89752 | 142.20022 | 32064 ft | 427 kts | 287° |
| 2026-05-09 02:45 | -15.88106 | 142.14103 | 32058 ft | 427 kts | 287° |
| 2026-05-09 02:45 | -15.86452 | 142.08186 | 32055 ft | 426 kts | 287° |
| 2026-05-09 02:46 | -15.84798 | 142.02270 | 32058 ft | 427 kts | 287° |
| 2026-05-09 02:46 | -15.83149 | 141.96340 | 32051 ft | 427 kts | 287° |
| 2026-05-09 02:47 | -15.81490 | 141.90421 | 32047 ft | 427 kts | 287° |
| 2026-05-09 02:47 | -15.79825 | 141.84508 | 32048 ft | 427 kts | 287° |
| 2026-05-09 02:48 | -15.78177 | 141.78630 | 32046 ft | 427 kts | 287° |
| 2026-05-09 02:48 | -15.76511 | 141.72719 | 32050 ft | 426 kts | 287° |
| 2026-05-09 02:49 | -15.74845 | 141.66809 | 32045 ft | 426 kts | 287° |
| 2026-05-09 02:49 | -15.73184 | 141.60900 | 32045 ft | 427 kts | 287° |
| 2026-05-09 02:50 | -15.71512 | 141.54981 | 32047 ft | 427 kts | 287° |
| 2026-05-09 02:50 | -15.69840 | 141.49074 | 32036 ft | 427 kts | 287° |
| 2026-05-09 02:51 | -15.68179 | 141.43164 | 32036 ft | 427 kts | 287° |
| 2026-05-09 02:51 | -15.66504 | 141.37245 | 32034 ft | 427 kts | 287° |
| 2026-05-09 02:52 | -15.64819 | 141.31335 | 32028 ft | 427 kts | 287° |
| 2026-05-09 02:52 | -15.63142 | 141.25421 | 32024 ft | 427 kts | 287° |
| 2026-05-09 02:53 | -15.61459 | 141.19510 | 32022 ft | 428 kts | 287° |
| 2026-05-09 02:53 | -15.59773 | 141.13598 | 32022 ft | 428 kts | 287° |
| 2026-05-09 02:54 | -15.58089 | 141.07685 | 32021 ft | 427 kts | 287° |
| 2026-05-09 02:54 | -15.56406 | 141.01769 | 32022 ft | 428 kts | 287° |
| 2026-05-09 02:55 | -15.54725 | 140.95856 | 32019 ft | 428 kts | 287° |
| 2026-05-09 02:55 | -15.53030 | 140.89940 | 32022 ft | 428 kts | 287° |
| 2026-05-09 02:56 | -15.51351 | 140.84070 | 32022 ft | 428 kts | 287° |
| 2026-05-09 02:56 | -15.49658 | 140.78153 | 32022 ft | 428 kts | 287° |
| 2026-05-09 02:57 | -15.47967 | 140.72247 | 32020 ft | 427 kts | 287° |
| 2026-05-09 02:57 | -15.46272 | 140.66352 | 32013 ft | 427 kts | 287° |
| 2026-05-09 02:58 | -15.44581 | 140.60450 | 32013 ft | 427 kts | 287° |
| 2026-05-09 02:58 | -15.42883 | 140.54550 | 32013 ft | 427 kts | 287° |
| 2026-05-09 02:59 | -15.41183 | 140.48660 | 32012 ft | 427 kts | 287° |
| 2026-05-09 02:59 | -15.39485 | 140.42772 | 32007 ft | 427 kts | 287° |
| 2026-05-09 03:00 | -15.37788 | 140.36876 | 32002 ft | 427 kts | 287° |
| 2026-05-09 03:00 | -15.36087 | 140.30981 | 32003 ft | 427 kts | 287° |
| 2026-05-09 03:01 | -15.34668 | 140.26071 | 32004 ft | 429 kts | 287° |
| 2026-05-09 03:01 | -15.32953 | 140.20158 | 32008 ft | 429 kts | 288° |
| 2026-05-09 03:02 | -15.31243 | 140.14251 | 32018 ft | 428 kts | 287° |
| 2026-05-09 03:02 | -15.29529 | 140.08341 | 32020 ft | 428 kts | 287° |
| 2026-05-09 03:03 | -15.27818 | 140.02453 | 32018 ft | 427 kts | 287° |
| 2026-05-09 03:03 | -15.26106 | 139.96568 | 32014 ft | 426 kts | 288° |
| 2026-05-09 03:04 | -15.24398 | 139.90690 | 32010 ft | 426 kts | 288° |
| 2026-05-09 03:04 | -15.22683 | 139.84816 | 32002 ft | 426 kts | 288° |
| 2026-05-09 03:05 | -15.20971 | 139.78941 | 31999 ft | 426 kts | 287° |
| 2026-05-09 03:05 | -15.19260 | 139.73067 | 31992 ft | 427 kts | 288° |
| 2026-05-09 03:06 | -15.17546 | 139.67191 | 31984 ft | 427 kts | 288° |
| 2026-05-09 03:06 | -15.15832 | 139.61345 | 31987 ft | 427 kts | 288° |
| 2026-05-09 03:07 | -15.14106 | 139.55454 | 32000 ft | 428 kts | 287° |
| 2026-05-09 03:07 | -15.12378 | 139.49562 | 32003 ft | 428 kts | 288° |
| 2026-05-09 03:08 | -15.10649 | 139.43681 | 32005 ft | 427 kts | 287° |
| 2026-05-09 03:08 | -15.08920 | 139.37798 | 32011 ft | 427 kts | 288° |
| 2026-05-09 03:09 | -15.07193 | 139.31911 | 32010 ft | 428 kts | 287° |
| 2026-05-09 03:09 | -15.05462 | 139.26016 | 32016 ft | 428 kts | 288° |
| 2026-05-09 03:10 | -15.03727 | 139.20117 | 32018 ft | 429 kts | 288° |
| 2026-05-09 03:10 | -15.01988 | 139.14219 | 32017 ft | 428 kts | 288° |
| 2026-05-09 03:11 | -15.00243 | 139.08326 | 32015 ft | 428 kts | 288° |
| 2026-05-09 03:11 | -14.98497 | 139.02436 | 32016 ft | 428 kts | 288° |
| 2026-05-09 03:12 | -14.96757 | 138.96553 | 32015 ft | 428 kts | 288° |
| 2026-05-09 03:12 | -14.95018 | 138.90672 | 32015 ft | 428 kts | 288° |
| 2026-05-09 03:13 | -14.92402 | 138.81847 | 32012 ft | 428 kts | 288° |
| 2026-05-09 03:13 | -14.90657 | 138.75969 | 32009 ft | 428 kts | 288° |
| 2026-05-09 03:14 | -14.88909 | 138.70088 | 32005 ft | 428 kts | 288° |
| 2026-05-09 03:14 | -14.87159 | 138.64206 | 31998 ft | 428 kts | 288° |
| 2026-05-09 03:15 | -14.85402 | 138.58327 | 31992 ft | 428 kts | 288° |
| 2026-05-09 03:15 | -14.83665 | 138.52489 | 31980 ft | 428 kts | 288° |
| 2026-05-09 03:16 | -14.81911 | 138.46612 | 31977 ft | 428 kts | 288° |
| 2026-05-09 03:16 | -14.80151 | 138.40733 | 31982 ft | 429 kts | 288° |
| 2026-05-09 03:17 | -14.78394 | 138.34844 | 31982 ft | 429 kts | 288° |
| 2026-05-09 03:17 | -14.76631 | 138.28963 | 31978 ft | 429 kts | 288° |
| 2026-05-09 03:18 | -14.74863 | 138.23084 | 31971 ft | 428 kts | 288° |
| 2026-05-09 03:18 | -14.73096 | 138.17207 | 31967 ft | 428 kts | 288° |
| 2026-05-09 03:19 | -14.71333 | 138.11330 | 31969 ft | 429 kts | 288° |
| 2026-05-09 03:19 | -14.69571 | 138.05442 | 31963 ft | 430 kts | 288° |
| 2026-05-09 03:20 | -14.67801 | 137.99549 | 31963 ft | 430 kts | 288° |
| 2026-05-09 03:20 | -14.66024 | 137.93652 | 31965 ft | 430 kts | 288° |
| 2026-05-09 03:21 | -14.64238 | 137.87752 | 31971 ft | 430 kts | 288° |
| 2026-05-09 03:21 | -14.62463 | 137.81856 | 31973 ft | 430 kts | 288° |
| 2026-05-09 03:22 | -14.60680 | 137.75969 | 31975 ft | 430 kts | 288° |
| 2026-05-09 03:22 | -14.58899 | 137.70079 | 31975 ft | 430 kts | 288° |
| 2026-05-09 03:23 | -14.57118 | 137.64190 | 31973 ft | 430 kts | 288° |
| 2026-05-09 03:23 | -14.55327 | 137.58303 | 31975 ft | 430 kts | 288° |
| 2026-05-09 03:24 | -14.53540 | 137.52410 | 31977 ft | 430 kts | 288° |
| 2026-05-09 03:24 | -14.51746 | 137.46514 | 31976 ft | 431 kts | 288° |
| 2026-05-09 03:25 | -14.49961 | 137.40618 | 31980 ft | 430 kts | 288° |
| 2026-05-09 03:25 | -14.48184 | 137.34771 | 31983 ft | 430 kts | 288° |
| 2026-05-09 03:26 | -14.46387 | 137.28891 | 31979 ft | 429 kts | 288° |
| 2026-05-09 03:26 | -14.44605 | 137.23012 | 31979 ft | 430 kts | 288° |
| 2026-05-09 03:27 | -14.42819 | 137.17137 | 31980 ft | 429 kts | 288° |
| 2026-05-09 03:27 | -14.41022 | 137.11276 | 31984 ft | 428 kts | 288° |
| 2026-05-09 03:28 | -14.39228 | 137.05417 | 31979 ft | 428 kts | 288° |
| 2026-05-09 03:28 | -14.37442 | 136.99564 | 31981 ft | 428 kts | 288° |
| 2026-05-09 03:29 | -14.35654 | 136.93717 | 31977 ft | 427 kts | 288° |
| 2026-05-09 03:29 | -14.33861 | 136.87873 | 31969 ft | 427 kts | 288° |
| 2026-05-09 03:30 | -14.32062 | 136.82028 | 31968 ft | 428 kts | 288° |
| 2026-05-09 03:30 | -14.30263 | 136.76178 | 31970 ft | 428 kts | 288° |
| 2026-05-09 03:31 | -14.28463 | 136.70328 | 31972 ft | 428 kts | 288° |
| 2026-05-09 03:31 | -14.26659 | 136.64477 | 31971 ft | 428 kts | 288° |
| 2026-05-09 03:32 | -14.24859 | 136.58635 | 31971 ft | 428 kts | 288° |
| 2026-05-09 03:32 | -14.23059 | 136.52790 | 31968 ft | 428 kts | 288° |
| 2026-05-09 03:33 | -14.21266 | 136.46945 | 31967 ft | 428 kts | 288° |
| 2026-05-09 03:33 | -14.19456 | 136.41097 | 31968 ft | 429 kts | 288° |
| 2026-05-09 03:34 | -14.17638 | 136.35246 | 31967 ft | 428 kts | 288° |
| 2026-05-09 03:34 | -14.15825 | 136.29400 | 31970 ft | 429 kts | 288° |
| 2026-05-09 03:35 | -14.14014 | 136.23551 | 31965 ft | 428 kts | 288° |
| 2026-05-09 03:35 | -14.12212 | 136.17740 | 31962 ft | 429 kts | 288° |
| 2026-05-09 03:36 | -14.10391 | 136.11851 | 31965 ft | 429 kts | 288° |
| 2026-05-09 03:36 | -14.08588 | 136.06034 | 31965 ft | 429 kts | 288° |
| 2026-05-09 03:37 | -14.06763 | 136.00180 | 31966 ft | 429 kts | 288° |
| 2026-05-09 03:37 | -14.04936 | 135.94324 | 31973 ft | 429 kts | 288° |
| 2026-05-09 03:38 | -14.03120 | 135.88465 | 31974 ft | 430 kts | 288° |
| 2026-05-09 03:38 | -14.01291 | 135.82608 | 31971 ft | 430 kts | 288° |
| 2026-05-09 03:39 | -13.99459 | 135.76757 | 31971 ft | 429 kts | 288° |
| 2026-05-09 03:39 | -13.97634 | 135.70915 | 31966 ft | 429 kts | 288° |
| 2026-05-09 03:40 | -13.95803 | 135.65075 | 31971 ft | 428 kts | 288° |
| 2026-05-09 03:40 | -13.93978 | 135.59236 | 31970 ft | 428 kts | 288° |
| 2026-05-09 03:41 | -13.92157 | 135.53402 | 31966 ft | 428 kts | 288° |
| 2026-05-09 03:41 | -13.90332 | 135.47563 | 31968 ft | 428 kts | 288° |
| 2026-05-09 03:42 | -13.88500 | 135.41730 | 31968 ft | 429 kts | 288° |
| 2026-05-09 03:42 | -13.86670 | 135.35891 | 31969 ft | 429 kts | 288° |
| 2026-05-09 03:43 | -13.84841 | 135.30051 | 31968 ft | 428 kts | 288° |
| 2026-05-09 03:43 | -13.83013 | 135.24223 | 31969 ft | 428 kts | 288° |
| 2026-05-09 03:44 | -13.81183 | 135.18395 | 31970 ft | 428 kts | 288° |
| 2026-05-09 03:44 | -13.79345 | 135.12568 | 31972 ft | 428 kts | 288° |
| 2026-05-09 03:45 | -13.77510 | 135.06738 | 31972 ft | 428 kts | 288° |
| 2026-05-09 03:45 | -13.75681 | 135.00913 | 31973 ft | 428 kts | 288° |
| 2026-05-09 03:46 | -13.73853 | 134.95092 | 31972 ft | 428 kts | 288° |
| 2026-05-09 03:46 | -13.72011 | 134.89276 | 31978 ft | 427 kts | 288° |
| 2026-05-09 03:47 | -13.70477 | 134.84450 | 31984 ft | 427 kts | 288° |
| 2026-05-09 03:47 | -13.68645 | 134.78646 | 31981 ft | 427 kts | 288° |
| 2026-05-09 03:48 | -13.66812 | 134.72843 | 31990 ft | 426 kts | 288° |
| 2026-05-09 03:48 | -13.64979 | 134.67050 | 32000 ft | 426 kts | 288° |
| 2026-05-09 03:49 | -13.63145 | 134.61252 | 32000 ft | 426 kts | 288° |
| 2026-05-09 03:49 | -13.61311 | 134.55464 | 32000 ft | 426 kts | 288° |
| 2026-05-09 03:50 | -13.59468 | 134.49685 | 32002 ft | 425 kts | 288° |
| 2026-05-09 03:50 | -13.57643 | 134.43954 | 31996 ft | 424 kts | 288° |
| 2026-05-09 03:51 | -13.55814 | 134.38196 | 31991 ft | 424 kts | 288° |
| 2026-05-09 03:51 | -13.53991 | 134.32438 | 31987 ft | 424 kts | 288° |
| 2026-05-09 03:52 | -13.52155 | 134.26688 | 31976 ft | 423 kts | 288° |
| 2026-05-09 03:52 | -13.50314 | 134.20951 | 31972 ft | 423 kts | 288° |
| 2026-05-09 03:53 | -13.48476 | 134.15212 | 31976 ft | 423 kts | 288° |
| 2026-05-09 03:53 | -13.46641 | 134.09437 | 31972 ft | 422 kts | 288° |
| 2026-05-09 03:54 | -13.44829 | 134.03743 | 31967 ft | 422 kts | 288° |
| 2026-05-09 03:54 | -13.42996 | 133.98019 | 31965 ft | 422 kts | 288° |
| 2026-05-09 03:55 | -13.41155 | 133.92281 | 31970 ft | 423 kts | 288° |
| 2026-05-09 03:55 | -13.39318 | 133.86545 | 31973 ft | 423 kts | 288° |
| 2026-05-09 03:56 | -13.37475 | 133.80808 | 31975 ft | 423 kts | 288° |
| 2026-05-09 03:56 | -13.35629 | 133.75073 | 31976 ft | 423 kts | 288° |
| 2026-05-09 03:57 | -13.33787 | 133.69341 | 31976 ft | 423 kts | 288° |
| 2026-05-09 03:57 | -13.31941 | 133.63604 | 31971 ft | 423 kts | 288° |
| 2026-05-09 03:58 | -13.30095 | 133.57870 | 31976 ft | 423 kts | 288° |
| 2026-05-09 03:58 | -13.28267 | 133.52160 | 31973 ft | 424 kts | 288° |
| 2026-05-09 03:59 | -13.26409 | 133.46418 | 31971 ft | 424 kts | 288° |
| 2026-05-09 03:59 | -13.24551 | 133.40678 | 31971 ft | 424 kts | 288° |
| 2026-05-09 04:00 | -13.22694 | 133.34932 | 31971 ft | 424 kts | 288° |
| 2026-05-09 04:00 | -13.20837 | 133.29186 | 31971 ft | 425 kts | 288° |
| 2026-05-09 04:01 | -13.18971 | 133.23429 | 31979 ft | 425 kts | 288° |
| 2026-05-09 04:01 | -13.17108 | 133.17677 | 31983 ft | 425 kts | 288° |
| 2026-05-09 04:02 | -13.15236 | 133.11921 | 31981 ft | 425 kts | 288° |
| 2026-05-09 04:02 | -13.13369 | 133.06172 | 31978 ft | 425 kts | 288° |
| 2026-05-09 04:03 | -13.11500 | 133.00423 | 31983 ft | 425 kts | 288° |
| 2026-05-09 04:03 | -13.09637 | 132.94665 | 31984 ft | 425 kts | 288° |
| 2026-05-09 04:04 | -13.07771 | 132.88915 | 31975 ft | 424 kts | 288° |
| 2026-05-09 04:04 | -13.05902 | 132.83174 | 31973 ft | 424 kts | 288° |
| 2026-05-09 04:05 | -13.04042 | 132.77469 | 31976 ft | 425 kts | 288° |
| 2026-05-09 04:05 | -13.02171 | 132.71726 | 31978 ft | 425 kts | 288° |
| 2026-05-09 04:06 | -13.00297 | 132.65981 | 31976 ft | 425 kts | 288° |
| 2026-05-09 04:06 | -12.98413 | 132.60236 | 31982 ft | 425 kts | 288° |
| 2026-05-09 04:07 | -12.96536 | 132.54493 | 31974 ft | 425 kts | 288° |
| 2026-05-09 04:07 | -12.94665 | 132.48740 | 31976 ft | 425 kts | 288° |
| 2026-05-09 04:08 | -12.92777 | 132.42952 | 31974 ft | 425 kts | 288° |
| 2026-05-09 04:08 | -12.90898 | 132.37242 | 31969 ft | 425 kts | 288° |
| 2026-05-09 04:09 | -12.89006 | 132.31500 | 31969 ft | 425 kts | 289° |
| 2026-05-09 04:09 | -12.87116 | 132.25750 | 31969 ft | 425 kts | 289° |
| 2026-05-09 04:10 | -12.85225 | 132.20004 | 31966 ft | 426 kts | 289° |
| 2026-05-09 04:10 | -12.83329 | 132.14252 | 31963 ft | 426 kts | 289° |
| 2026-05-09 04:11 | -12.81435 | 132.08499 | 31962 ft | 427 kts | 289° |
| 2026-05-09 04:11 | -12.79537 | 132.02730 | 31968 ft | 427 kts | 288° |
| 2026-05-09 04:12 | -12.77636 | 131.96962 | 31967 ft | 428 kts | 288° |
| 2026-05-09 04:12 | -12.75735 | 131.91192 | 31969 ft | 427 kts | 288° |
| 2026-05-09 04:13 | -12.73843 | 131.85467 | 31968 ft | 427 kts | 288° |
| 2026-05-09 04:13 | -12.71939 | 131.79713 | 31966 ft | 427 kts | 289° |
| 2026-05-09 04:14 | -12.70039 | 131.73957 | 31964 ft | 427 kts | 288° |
| 2026-05-09 04:14 | -12.68134 | 131.68200 | 31955 ft | 427 kts | 288° |
| 2026-05-09 04:15 | -12.66234 | 131.62445 | 31951 ft | 427 kts | 289° |
| 2026-05-09 04:15 | -12.64329 | 131.56690 | 31947 ft | 427 kts | 289° |
| 2026-05-09 04:16 | -12.62417 | 131.50935 | 31939 ft | 427 kts | 289° |
| 2026-05-09 04:16 | -12.60500 | 131.45177 | 31946 ft | 427 kts | 288° |
| 2026-05-09 04:17 | -12.58587 | 131.39425 | 31948 ft | 427 kts | 288° |
| 2026-05-09 04:17 | -12.56676 | 131.33675 | 31949 ft | 427 kts | 288° |
| 2026-05-09 04:18 | -12.54770 | 131.27926 | 31989 ft | 427 kts | 288° |
| 2026-05-09 04:18 | -12.52873 | 131.22176 | 32137 ft | 426 kts | 288° |
| 2026-05-09 04:19 | -12.51926 | 131.19298 | 32246 ft | 426 kts | 288° |
| 2026-05-09 04:19 | -12.50981 | 131.16426 | 32388 ft | 426 kts | 288° |
| 2026-05-09 04:19 | -12.50039 | 131.13557 | 32564 ft | 425 kts | 288° |
| 2026-05-09 04:19 | -12.49100 | 131.10696 | 32750 ft | 423 kts | 288° |
| 2026-05-09 04:20 | -12.48165 | 131.07843 | 32949 ft | 422 kts | 288° |
| 2026-05-09 04:20 | -12.47234 | 131.04999 | 33171 ft | 421 kts | 289° |
| 2026-05-09 04:20 | -12.46308 | 131.02167 | 33380 ft | 419 kts | 289° |
| 2026-05-09 04:20 | -12.45385 | 130.99346 | 33616 ft | 417 kts | 289° |
| 2026-05-09 04:21 | -12.44466 | 130.96534 | 33856 ft | 416 kts | 289° |
| 2026-05-09 04:21 | -12.43551 | 130.93735 | 34106 ft | 414 kts | 289° |
| 2026-05-09 04:21 | -12.41736 | 130.88184 | 34651 ft | 409 kts | 289° |
| 2026-05-09 04:22 | -12.40838 | 130.85437 | 34951 ft | 406 kts | 289° |
| 2026-05-09 04:22 | -12.39950 | 130.82716 | 35264 ft | 401 kts | 289° |
| 2026-05-09 04:22 | -12.39100 | 130.80055 | 35531 ft | 399 kts | 286° |
| 2026-05-09 04:22 | -12.38581 | 130.77268 | 35703 ft | 400 kts | 279° |
| 2026-05-09 04:23 | -12.38326 | 130.74437 | 35878 ft | 400 kts | 277° |
| 2026-05-09 04:23 | -12.38102 | 130.71608 | 36051 ft | 398 kts | 278° |
| 2026-05-09 04:23 | -12.37791 | 130.68839 | 36221 ft | 396 kts | 280° |
| 2026-05-09 04:23 | -12.37358 | 130.66063 | 36390 ft | 394 kts | 283° |
| 2026-05-09 04:24 | -12.36828 | 130.63323 | 36567 ft | 392 kts | 284° |
| 2026-05-09 04:24 | -12.36245 | 130.60608 | 36731 ft | 390 kts | 285° |
| 2026-05-09 04:24 | -12.35641 | 130.57902 | 36836 ft | 390 kts | 285° |
| 2026-05-09 04:25 | -12.34448 | 130.52473 | 37012 ft | 392 kts | 284° |
| 2026-05-09 04:25 | -12.33299 | 130.47015 | 37166 ft | 393 kts | 284° |
| 2026-05-09 04:26 | -12.32177 | 130.41542 | 37338 ft | 394 kts | 284° |
| 2026-05-09 04:26 | -12.31044 | 130.36051 | 37468 ft | 395 kts | 284° |
| 2026-05-09 04:27 | -12.29901 | 130.30551 | 37613 ft | 396 kts | 284° |
| 2026-05-09 04:27 | -12.28746 | 130.25044 | 37766 ft | 397 kts | 284° |
| 2026-05-09 04:27 | -12.28163 | 130.22258 | 37387 ft | 405 kts | 284° |
| 2026-05-09 04:28 | -12.27578 | 130.19456 | 37103 ft | 412 kts | 284° |
| 2026-05-09 04:28 | -12.26979 | 130.16582 | 36798 ft | 414 kts | 284° |
| 2026-05-09 04:28 | -12.26381 | 130.13698 | 36500 ft | 415 kts | 284° |
| 2026-05-09 04:28 | -12.25781 | 130.10823 | 35968 ft | 414 kts | 284° |
| 2026-05-09 04:29 | -12.25181 | 130.07941 | 35216 ft | 414 kts | 284° |
| 2026-05-09 04:29 | -12.24582 | 130.05059 | 34436 ft | 415 kts | 284° |
| 2026-05-09 04:29 | -12.23980 | 130.02177 | 34075 ft | 415 kts | 284° |
| 2026-05-09 04:29 | -12.23375 | 129.99282 | 33912 ft | 417 kts | 283° |
| 2026-05-09 04:30 | -12.22768 | 129.96376 | 33951 ft | 419 kts | 283° |
| 2026-05-09 04:30 | -12.21549 | 129.90532 | 33948 ft | 421 kts | 283° |
| 2026-05-09 04:31 | -12.20321 | 129.84668 | 33955 ft | 422 kts | 283° |
| 2026-05-09 04:31 | -12.19085 | 129.78794 | 33955 ft | 423 kts | 284° |
| 2026-05-09 04:32 | -12.17845 | 129.72910 | 33943 ft | 424 kts | 284° |
| 2026-05-09 04:32 | -12.16603 | 129.67022 | 33940 ft | 424 kts | 283° |
| 2026-05-09 04:33 | -12.15364 | 129.61121 | 33936 ft | 425 kts | 283° |
| 2026-05-09 04:33 | -12.14128 | 129.55213 | 33936 ft | 425 kts | 283° |
| 2026-05-09 04:34 | -12.12919 | 129.49294 | 33944 ft | 426 kts | 283° |
| 2026-05-09 04:34 | -12.11719 | 129.43357 | 33947 ft | 427 kts | 283° |
| 2026-05-09 04:35 | -12.10515 | 129.37426 | 33951 ft | 426 kts | 283° |
| 2026-05-09 04:35 | -12.09300 | 129.31504 | 33946 ft | 426 kts | 283° |
| 2026-05-09 04:36 | -12.08285 | 129.26584 | 33956 ft | 426 kts | 283° |
| 2026-05-09 04:36 | -12.07058 | 129.20666 | 33957 ft | 425 kts | 283° |
| 2026-05-09 04:37 | -12.05828 | 129.14758 | 33957 ft | 425 kts | 283° |
| 2026-05-09 04:37 | -12.04583 | 129.08863 | 33958 ft | 424 kts | 283° |
| 2026-05-09 04:38 | -12.03342 | 129.02970 | 33956 ft | 424 kts | 283° |
| 2026-05-09 04:38 | -12.02098 | 128.97094 | 33953 ft | 423 kts | 283° |
| 2026-05-09 04:39 | -12.00844 | 128.91223 | 33958 ft | 423 kts | 283° |
| 2026-05-09 04:39 | -11.99603 | 128.85352 | 33954 ft | 423 kts | 282° |
| 2026-05-09 04:40 | -11.98361 | 128.79472 | 33931 ft | 424 kts | 283° |
| 2026-05-09 04:40 | -11.97098 | 128.73576 | 33932 ft | 425 kts | 283° |
| 2026-05-09 04:41 | -11.95834 | 128.67665 | 33944 ft | 427 kts | 282° |
| 2026-05-09 04:41 | -11.94587 | 128.61784 | 33948 ft | 426 kts | 282° |
| 2026-05-09 04:42 | -11.93324 | 128.55829 | 33953 ft | 426 kts | 282° |
| 2026-05-09 04:42 | -11.92073 | 128.49956 | 33947 ft | 426 kts | 282° |
| 2026-05-09 04:43 | -11.90806 | 128.44051 | 33953 ft | 426 kts | 282° |
| 2026-05-09 04:43 | -11.89538 | 128.38150 | 33948 ft | 425 kts | 282° |
| 2026-05-09 04:44 | -11.88274 | 128.32259 | 33948 ft | 425 kts | 282° |
| 2026-05-09 04:44 | -11.87016 | 128.26361 | 33947 ft | 425 kts | 282° |
| 2026-05-09 04:45 | -11.85754 | 128.20469 | 33951 ft | 424 kts | 282° |
| 2026-05-09 04:45 | -11.84490 | 128.14585 | 33953 ft | 424 kts | 282° |
| 2026-05-09 04:46 | -11.83223 | 128.08695 | 33942 ft | 424 kts | 282° |
| 2026-05-09 04:46 | -11.81949 | 128.02809 | 33952 ft | 425 kts | 282° |
| 2026-05-09 04:47 | -11.80682 | 127.96919 | 33949 ft | 425 kts | 282° |
| 2026-05-09 04:47 | -11.79420 | 127.91037 | 33952 ft | 424 kts | 282° |
| 2026-05-09 04:48 | -11.78159 | 127.85196 | 33936 ft | 424 kts | 282° |
| 2026-05-09 04:48 | -11.76872 | 127.79283 | 33936 ft | 424 kts | 282° |
| 2026-05-09 04:49 | -11.75609 | 127.73445 | 33937 ft | 424 kts | 282° |
| 2026-05-09 04:49 | -11.74339 | 127.67569 | 33934 ft | 424 kts | 282° |
| 2026-05-09 04:50 | -11.73061 | 127.61684 | 33932 ft | 425 kts | 282° |
| 2026-05-09 04:50 | -11.71778 | 127.55806 | 33932 ft | 425 kts | 282° |
| 2026-05-09 04:51 | -11.70505 | 127.49924 | 33930 ft | 424 kts | 282° |
| 2026-05-09 04:51 | -11.69229 | 127.44048 | 33924 ft | 424 kts | 282° |
| 2026-05-09 04:52 | -11.67949 | 127.38170 | 33913 ft | 424 kts | 282° |
| 2026-05-09 04:52 | -11.66671 | 127.32293 | 33909 ft | 424 kts | 282° |
| 2026-05-09 04:53 | -11.65386 | 127.26415 | 33903 ft | 424 kts | 282° |
| 2026-05-09 04:53 | -11.64100 | 127.20546 | 33903 ft | 424 kts | 282° |
| 2026-05-09 04:54 | -11.62820 | 127.14665 | 33898 ft | 425 kts | 282° |
| 2026-05-09 04:54 | -11.61533 | 127.08783 | 33894 ft | 425 kts | 282° |
| 2026-05-09 04:55 | -11.60242 | 127.02893 | 33901 ft | 425 kts | 282° |
| 2026-05-09 04:55 | -11.58958 | 126.97045 | 33901 ft | 426 kts | 282° |
| 2026-05-09 04:56 | -11.57668 | 126.91157 | 33899 ft | 425 kts | 282° |
| 2026-05-09 04:56 | -11.56374 | 126.85270 | 33901 ft | 425 kts | 282° |
| 2026-05-09 04:57 | -11.55079 | 126.79394 | 33901 ft | 425 kts | 282° |
| 2026-05-09 04:57 | -11.53784 | 126.73516 | 33899 ft | 424 kts | 282° |
| 2026-05-09 04:58 | -11.52489 | 126.67641 | 33899 ft | 425 kts | 282° |
| 2026-05-09 04:58 | -11.51194 | 126.61765 | 33895 ft | 424 kts | 282° |
| 2026-05-09 04:59 | -11.49946 | 126.55878 | 33899 ft | 425 kts | 281° |
| 2026-05-09 04:59 | -11.48716 | 126.49990 | 33901 ft | 425 kts | 281° |
| 2026-05-09 05:00 | -11.47471 | 126.44103 | 33904 ft | 425 kts | 281° |
| 2026-05-09 05:00 | -11.46222 | 126.38217 | 33903 ft | 425 kts | 281° |
| 2026-05-09 05:01 | -11.44966 | 126.32335 | 33908 ft | 425 kts | 281° |
| 2026-05-09 05:01 | -11.43703 | 126.26454 | 33907 ft | 424 kts | 281° |
| 2026-05-09 05:02 | -11.42439 | 126.20575 | 33908 ft | 424 kts | 281° |
| 2026-05-09 05:02 | -11.41185 | 126.14695 | 33906 ft | 424 kts | 281° |
| 2026-05-09 05:03 | -11.39934 | 126.08815 | 33903 ft | 425 kts | 281° |
| 2026-05-09 05:03 | -11.38681 | 126.02935 | 33901 ft | 425 kts | 281° |
| 2026-05-09 05:04 | -11.37421 | 125.97051 | 33905 ft | 425 kts | 281° |
| 2026-05-09 05:04 | -11.36156 | 125.91202 | 33900 ft | 425 kts | 281° |
| 2026-05-09 05:05 | -11.34891 | 125.85318 | 33902 ft | 425 kts | 281° |
| 2026-05-09 05:05 | -11.33628 | 125.79435 | 33900 ft | 425 kts | 281° |
| 2026-05-09 05:06 | -11.32366 | 125.73556 | 33903 ft | 425 kts | 281° |
| 2026-05-09 05:06 | -11.31093 | 125.67672 | 33894 ft | 425 kts | 281° |
| 2026-05-09 05:07 | -11.29818 | 125.61780 | 33899 ft | 426 kts | 281° |
| 2026-05-09 05:07 | -11.28550 | 125.55889 | 33894 ft | 425 kts | 281° |
| 2026-05-09 05:08 | -11.27278 | 125.49999 | 33896 ft | 425 kts | 281° |
| 2026-05-09 05:08 | -11.26004 | 125.44117 | 33893 ft | 426 kts | 281° |
| 2026-05-09 05:09 | -11.24722 | 125.38222 | 33893 ft | 426 kts | 281° |
| 2026-05-09 05:09 | -11.23444 | 125.32325 | 33892 ft | 427 kts | 281° |
| 2026-05-09 05:10 | -11.22175 | 125.26424 | 33901 ft | 427 kts | 281° |
| 2026-05-09 05:10 | -11.20905 | 125.20563 | 33895 ft | 427 kts | 281° |
| 2026-05-09 05:11 | -11.19612 | 125.14657 | 33900 ft | 427 kts | 281° |
| 2026-05-09 05:11 | -11.18317 | 125.08748 | 33897 ft | 428 kts | 281° |
| 2026-05-09 05:12 | -11.17031 | 125.02830 | 33900 ft | 428 kts | 281° |
| 2026-05-09 05:12 | -11.15748 | 124.96909 | 33904 ft | 428 kts | 281° |
| 2026-05-09 05:13 | -11.14463 | 124.90988 | 33901 ft | 428 kts | 281° |
| 2026-05-09 05:13 | -11.13159 | 124.85066 | 33902 ft | 428 kts | 281° |
| 2026-05-09 05:14 | -11.11859 | 124.79149 | 33901 ft | 429 kts | 281° |
| 2026-05-09 05:14 | -11.10562 | 124.73228 | 33901 ft | 428 kts | 281° |
| 2026-05-09 05:15 | -11.09271 | 124.67310 | 33899 ft | 428 kts | 281° |
| 2026-05-09 05:15 | -11.07972 | 124.61394 | 33898 ft | 428 kts | 281° |
| 2026-05-09 05:16 | -11.06662 | 124.55479 | 33895 ft | 429 kts | 281° |
| 2026-05-09 05:16 | -11.05336 | 124.49563 | 33898 ft | 429 kts | 281° |
| 2026-05-09 05:17 | -11.03999 | 124.43650 | 33891 ft | 429 kts | 281° |
| 2026-05-09 05:17 | -11.02667 | 124.37737 | 33892 ft | 429 kts | 281° |
| 2026-05-09 05:18 | -11.01335 | 124.31815 | 33886 ft | 429 kts | 281° |
| 2026-05-09 05:18 | -11.00009 | 124.25891 | 33884 ft | 430 kts | 281° |
| 2026-05-09 05:19 | -10.98683 | 124.19960 | 33892 ft | 430 kts | 281° |
| 2026-05-09 05:19 | -10.97346 | 124.14028 | 33898 ft | 430 kts | 281° |
| 2026-05-09 05:20 | -10.96007 | 124.08103 | 33889 ft | 430 kts | 281° |
| 2026-05-09 05:20 | -10.94666 | 124.02172 | 33897 ft | 430 kts | 281° |
| 2026-05-09 05:21 | -10.93322 | 123.96239 | 33893 ft | 430 kts | 281° |
| 2026-05-09 05:21 | -10.91981 | 123.90308 | 33888 ft | 430 kts | 281° |
| 2026-05-09 05:22 | -10.90638 | 123.84373 | 33881 ft | 431 kts | 281° |
| 2026-05-09 05:22 | -10.89300 | 123.78464 | 33886 ft | 432 kts | 281° |
| 2026-05-09 05:23 | -10.87936 | 123.72468 | 33893 ft | 432 kts | 281° |
| 2026-05-09 05:23 | -10.86598 | 123.66558 | 33891 ft | 432 kts | 281° |
| 2026-05-09 05:24 | -10.85245 | 123.60601 | 33889 ft | 432 kts | 281° |
| 2026-05-09 05:24 | -10.83888 | 123.54651 | 33894 ft | 432 kts | 281° |
| 2026-05-09 05:25 | -10.82534 | 123.48699 | 33886 ft | 432 kts | 281° |
| 2026-05-09 05:25 | -10.80731 | 123.40764 | 33882 ft | 433 kts | 281° |
| 2026-05-09 05:26 | -10.79371 | 123.34799 | 33885 ft | 433 kts | 281° |
| 2026-05-09 05:26 | -10.78000 | 123.28830 | 33891 ft | 433 kts | 281° |
| 2026-05-09 05:27 | -10.76633 | 123.22860 | 33888 ft | 433 kts | 281° |
| 2026-05-09 05:27 | -10.75271 | 123.16886 | 33893 ft | 434 kts | 281° |
| 2026-05-09 05:28 | -10.73905 | 123.10911 | 33892 ft | 434 kts | 281° |
| 2026-05-09 05:28 | -10.72536 | 123.04938 | 33890 ft | 434 kts | 281° |
| 2026-05-09 05:29 | -10.71159 | 122.98955 | 33885 ft | 435 kts | 281° |
| 2026-05-09 05:29 | -10.69785 | 122.92963 | 33889 ft | 435 kts | 281° |
| 2026-05-09 05:30 | -10.68411 | 122.86977 | 33890 ft | 435 kts | 281° |
| 2026-05-09 05:30 | -10.67034 | 122.80988 | 33899 ft | 435 kts | 281° |
| 2026-05-09 05:31 | -10.65654 | 122.74994 | 33892 ft | 436 kts | 281° |
| 2026-05-09 05:31 | -10.64270 | 122.69000 | 33888 ft | 436 kts | 281° |
| 2026-05-09 05:32 | -10.62886 | 122.62992 | 33896 ft | 437 kts | 281° |
| 2026-05-09 05:32 | -10.61502 | 122.56981 | 33898 ft | 437 kts | 281° |
| 2026-05-09 05:33 | -10.60110 | 122.50960 | 33896 ft | 438 kts | 281° |
| 2026-05-09 05:33 | -10.58722 | 122.44967 | 33895 ft | 439 kts | 282° |
| 2026-05-09 05:34 | -10.57313 | 122.38902 | 33893 ft | 438 kts | 282° |
| 2026-05-09 05:34 | -10.55929 | 122.32909 | 33891 ft | 439 kts | 282° |
| 2026-05-09 05:35 | -10.54539 | 122.26869 | 33892 ft | 439 kts | 282° |
| 2026-05-09 05:35 | -10.53143 | 122.20819 | 33890 ft | 440 kts | 282° |
| 2026-05-09 05:36 | -10.51741 | 122.14770 | 33887 ft | 440 kts | 282° |
| 2026-05-09 05:36 | -10.50329 | 122.08716 | 33889 ft | 440 kts | 282° |
| 2026-05-09 05:37 | -10.48912 | 122.02660 | 33888 ft | 441 kts | 282° |
| 2026-05-09 05:37 | -10.47500 | 121.96600 | 33885 ft | 441 kts | 282° |
| 2026-05-09 05:38 | -10.46087 | 121.90528 | 33894 ft | 442 kts | 282° |
| 2026-05-09 05:38 | -10.44674 | 121.84450 | 33891 ft | 442 kts | 282° |
| 2026-05-09 05:39 | -10.43251 | 121.78366 | 33892 ft | 442 kts | 282° |
| 2026-05-09 05:39 | -10.41841 | 121.72329 | 33895 ft | 443 kts | 282° |
| 2026-05-09 05:40 | -10.40411 | 121.66247 | 33899 ft | 443 kts | 282° |
| 2026-05-09 05:40 | -10.38979 | 121.60162 | 33907 ft | 443 kts | 282° |
| 2026-05-09 05:41 | -10.37549 | 121.54071 | 33909 ft | 443 kts | 282° |
| 2026-05-09 05:41 | -10.36119 | 121.47977 | 33911 ft | 443 kts | 282° |
| 2026-05-09 05:42 | -10.34684 | 121.41885 | 33912 ft | 444 kts | 282° |
| 2026-05-09 05:42 | -10.33244 | 121.35805 | 33912 ft | 443 kts | 282° |
| 2026-05-09 05:43 | -10.31811 | 121.29724 | 33912 ft | 443 kts | 282° |
| 2026-05-09 05:43 | -10.30382 | 121.23631 | 33914 ft | 444 kts | 282° |
| 2026-05-09 05:44 | -10.28950 | 121.17538 | 33918 ft | 444 kts | 282° |
| 2026-05-09 05:44 | -10.27513 | 121.11447 | 33919 ft | 443 kts | 282° |
| 2026-05-09 05:45 | -10.26077 | 121.05366 | 33913 ft | 443 kts | 282° |
| 2026-05-09 05:45 | -10.24636 | 120.99287 | 33908 ft | 443 kts | 282° |
| 2026-05-09 05:46 | -10.23190 | 120.93202 | 33908 ft | 443 kts | 282° |
| 2026-05-09 05:46 | -10.21748 | 120.87114 | 33906 ft | 444 kts | 282° |
| 2026-05-09 05:47 | -10.20309 | 120.81018 | 33908 ft | 444 kts | 282° |
| 2026-05-09 05:47 | -10.18868 | 120.74918 | 33904 ft | 444 kts | 282° |
| 2026-05-09 05:48 | -10.17418 | 120.68819 | 33905 ft | 445 kts | 282° |
| 2026-05-09 05:48 | -10.15960 | 120.62710 | 33902 ft | 446 kts | 282° |
| 2026-05-09 05:49 | -10.14502 | 120.56588 | 33902 ft | 446 kts | 282° |
| 2026-05-09 05:49 | -10.13059 | 120.50498 | 33903 ft | 447 kts | 282° |
| 2026-05-09 05:50 | -10.11599 | 120.44366 | 33906 ft | 447 kts | 282° |
| 2026-05-09 05:50 | -10.10134 | 120.38226 | 33905 ft | 448 kts | 282° |
| 2026-05-09 05:51 | -10.08673 | 120.32082 | 33900 ft | 449 kts | 282° |
| 2026-05-09 05:51 | -10.07204 | 120.25932 | 33895 ft | 449 kts | 282° |
| 2026-05-09 05:52 | -10.05729 | 120.19785 | 33892 ft | 448 kts | 282° |
| 2026-05-09 05:52 | -10.04262 | 120.13641 | 33882 ft | 448 kts | 282° |
| 2026-05-09 05:53 | -10.02788 | 120.07490 | 33880 ft | 449 kts | 283° |
| 2026-05-09 05:53 | -10.01313 | 120.01344 | 33878 ft | 448 kts | 282° |
| 2026-05-09 05:54 | -9.99841 | 119.95193 | 33880 ft | 449 kts | 282° |
| 2026-05-09 05:54 | -9.98373 | 119.89028 | 33885 ft | 450 kts | 282° |
| 2026-05-09 05:55 | -9.96901 | 119.82858 | 33899 ft | 450 kts | 282° |
| 2026-05-09 05:55 | -9.95425 | 119.76691 | 33898 ft | 450 kts | 282° |
| 2026-05-09 05:56 | -9.93951 | 119.70528 | 33897 ft | 450 kts | 282° |
| 2026-05-09 05:56 | -9.92480 | 119.64353 | 33891 ft | 450 kts | 282° |
| 2026-05-09 05:57 | -9.91013 | 119.58226 | 33890 ft | 450 kts | 283° |
| 2026-05-09 05:57 | -9.89532 | 119.52056 | 33882 ft | 450 kts | 283° |
| 2026-05-09 05:58 | -9.88056 | 119.45887 | 33877 ft | 450 kts | 283° |
| 2026-05-09 05:58 | -9.86574 | 119.39724 | 33872 ft | 450 kts | 283° |
| 2026-05-09 05:59 | -9.85086 | 119.33550 | 33872 ft | 451 kts | 283° |
| 2026-05-09 05:59 | -9.83605 | 119.27367 | 33873 ft | 451 kts | 283° |
| 2026-05-09 06:00 | -9.82119 | 119.21185 | 33870 ft | 451 kts | 283° |
| 2026-05-09 06:00 | -9.80630 | 119.15005 | 33869 ft | 451 kts | 283° |
| 2026-05-09 06:01 | -9.79140 | 119.08826 | 33873 ft | 452 kts | 283° |
| 2026-05-09 06:01 | -9.77643 | 119.02636 | 33874 ft | 452 kts | 283° |
| 2026-05-09 06:02 | -9.76142 | 118.96444 | 33873 ft | 453 kts | 283° |
| 2026-05-09 06:02 | -9.74642 | 118.90237 | 33873 ft | 454 kts | 283° |
| 2026-05-09 06:03 | -9.73142 | 118.84026 | 33877 ft | 454 kts | 282° |
| 2026-05-09 06:03 | -9.71642 | 118.77813 | 33881 ft | 454 kts | 283° |
| 2026-05-09 06:04 | -9.70136 | 118.71596 | 33880 ft | 454 kts | 283° |
| 2026-05-09 06:04 | -9.68624 | 118.65380 | 33875 ft | 454 kts | 283° |
| 2026-05-09 06:05 | -9.67120 | 118.59206 | 33880 ft | 454 kts | 283° |
| 2026-05-09 06:05 | -9.65613 | 118.52994 | 33882 ft | 454 kts | 282° |
| 2026-05-09 06:06 | -9.64098 | 118.46746 | 33876 ft | 453 kts | 283° |
| 2026-05-09 06:06 | -9.62597 | 118.40592 | 33870 ft | 453 kts | 283° |
| 2026-05-09 06:07 | -9.61088 | 118.34383 | 33855 ft | 454 kts | 282° |
| 2026-05-09 06:07 | -9.59568 | 118.28158 | 33855 ft | 456 kts | 282° |
| 2026-05-09 06:08 | -9.58049 | 118.21919 | 33864 ft | 457 kts | 282° |
| 2026-05-09 06:08 | -9.56524 | 118.15665 | 33868 ft | 457 kts | 282° |
| 2026-05-09 06:09 | -9.54994 | 118.09415 | 33873 ft | 457 kts | 282° |
| 2026-05-09 06:09 | -9.53464 | 118.03169 | 33874 ft | 457 kts | 282° |
| 2026-05-09 06:10 | -9.51936 | 117.96914 | 33872 ft | 457 kts | 282° |
| 2026-05-09 06:10 | -9.50409 | 117.90661 | 33869 ft | 457 kts | 282° |
| 2026-05-09 06:11 | -9.48873 | 117.84405 | 33863 ft | 457 kts | 282° |
| 2026-05-09 06:11 | -9.47337 | 117.78155 | 33865 ft | 458 kts | 282° |
| 2026-05-09 06:12 | -9.45799 | 117.71897 | 33860 ft | 458 kts | 282° |
| 2026-05-09 06:12 | -9.44268 | 117.65635 | 33859 ft | 459 kts | 282° |
| 2026-05-09 06:13 | -9.42739 | 117.59357 | 33867 ft | 459 kts | 283° |
| 2026-05-09 06:13 | -9.41372 | 117.54159 | 33874 ft | 460 kts | 284° |
| 2026-05-09 06:14 | -9.39315 | 117.46922 | 33873 ft | 460 kts | 285° |
| 2026-05-09 06:14 | -9.37539 | 117.40700 | 33874 ft | 460 kts | 284° |
| 2026-05-09 06:15 | -9.36078 | 117.35476 | 33822 ft | 460 kts | 284° |
| 2026-05-09 06:15 | -9.35213 | 117.32355 | 33390 ft | 460 kts | 284° |
| 2026-05-09 06:15 | -9.34348 | 117.29217 | 32260 ft | 466 kts | 284° |
| 2026-05-09 06:16 | -9.33473 | 117.26051 | 31275 ft | 467 kts | 284° |
| 2026-05-09 06:16 | -9.32591 | 117.22876 | 30234 ft | 469 kts | 283° |
| 2026-05-09 06:16 | -9.31714 | 117.19730 | 29097 ft | 473 kts | 283° |
| 2026-05-09 06:16 | -9.30822 | 117.16521 | 27955 ft | 475 kts | 283° |
| 2026-05-09 06:17 | -9.29926 | 117.13295 | 26731 ft | 478 kts | 283° |
| 2026-05-09 06:17 | -9.29024 | 117.10048 | 25454 ft | 481 kts | 283° |
| 2026-05-09 06:17 | -9.28136 | 117.06777 | 24171 ft | 482 kts | 281° |
| 2026-05-09 06:17 | -9.27631 | 117.03436 | 23001 ft | 479 kts | 272° |
| 2026-05-09 06:18 | -9.27653 | 117.00096 | 22325 ft | 471 kts | 263° |
| 2026-05-09 06:18 | -9.28133 | 116.96830 | 22075 ft | 468 kts | 258° |
| 2026-05-09 06:18 | -9.28714 | 116.93589 | 21825 ft | 467 kts | 258° |
| 2026-05-09 06:18 | -9.29287 | 116.90358 | 21575 ft | 465 kts | 259° |
| 2026-05-09 06:19 | -9.29860 | 116.87137 | 21323 ft | 464 kts | 259° |
| 2026-05-09 06:19 | -9.30432 | 116.83927 | 21069 ft | 462 kts | 259° |
| 2026-05-09 06:19 | -9.31003 | 116.80732 | 20821 ft | 460 kts | 259° |
| 2026-05-09 06:19 | -9.31579 | 116.77552 | 20573 ft | 459 kts | 259° |
| 2026-05-09 06:20 | -9.32156 | 116.74381 | 20317 ft | 457 kts | 259° |
| 2026-05-09 06:20 | -9.32734 | 116.71225 | 20066 ft | 455 kts | 259° |
| 2026-05-09 06:20 | -9.33310 | 116.68075 | 19816 ft | 454 kts | 259° |
| 2026-05-09 06:20 | -9.33879 | 116.64937 | 19567 ft | 452 kts | 259° |
| 2026-05-09 06:21 | -9.34439 | 116.61812 | 19312 ft | 450 kts | 259° |
| 2026-05-09 06:21 | -9.34990 | 116.58697 | 19066 ft | 448 kts | 259° |
| 2026-05-09 06:21 | -9.35538 | 116.55595 | 18811 ft | 447 kts | 259° |
| 2026-05-09 06:21 | -9.36087 | 116.52506 | 18565 ft | 446 kts | 259° |
| 2026-05-09 06:22 | -9.36637 | 116.49424 | 18310 ft | 444 kts | 259° |
| 2026-05-09 06:22 | -9.37188 | 116.46352 | 18059 ft | 442 kts | 259° |
| 2026-05-09 06:22 | -9.37739 | 116.43296 | 17809 ft | 440 kts | 259° |
| 2026-05-09 06:22 | -9.38287 | 116.40250 | 17557 ft | 439 kts | 259° |
| 2026-05-09 06:23 | -9.38835 | 116.37216 | 17307 ft | 438 kts | 259° |
| 2026-05-09 06:23 | -9.39379 | 116.34193 | 17057 ft | 436 kts | 259° |
| 2026-05-09 06:23 | -9.39918 | 116.31174 | 16833 ft | 434 kts | 260° |
| 2026-05-09 06:23 | -9.40444 | 116.28207 | 16869 ft | 434 kts | 260° |
| 2026-05-09 06:24 | -9.40987 | 116.25156 | 16868 ft | 435 kts | 259° |
| 2026-05-09 06:24 | -9.41428 | 116.22169 | 16870 ft | 435 kts | 265° |
| 2026-05-09 06:24 | -9.41472 | 116.19069 | 16870 ft | 435 kts | 271° |
| 2026-05-09 06:24 | -9.41413 | 116.16047 | 16873 ft | 435 kts | 271° |
| 2026-05-09 06:25 | -9.41350 | 116.12984 | 16863 ft | 435 kts | 271° |
| 2026-05-09 06:25 | -9.41290 | 116.09925 | 16870 ft | 436 kts | 271° |
| 2026-05-09 06:25 | -9.41235 | 116.06858 | 16872 ft | 435 kts | 271° |
| 2026-05-09 06:25 | -9.41186 | 116.03794 | 16867 ft | 435 kts | 270° |
| 2026-05-09 06:26 | -9.41140 | 116.00733 | 16869 ft | 435 kts | 270° |
| 2026-05-09 06:26 | -9.41088 | 115.97672 | 16871 ft | 435 kts | 270° |
| 2026-05-09 06:26 | -9.41032 | 115.94605 | 16870 ft | 435 kts | 271° |
| 2026-05-09 06:26 | -9.40973 | 115.91544 | 16870 ft | 435 kts | 271° |
| 2026-05-09 06:27 | -9.40912 | 115.88480 | 16868 ft | 435 kts | 271° |
| 2026-05-09 06:27 | -9.40848 | 115.85416 | 16868 ft | 435 kts | 271° |
| 2026-05-09 06:27 | -9.40782 | 115.82352 | 16871 ft | 435 kts | 271° |
| 2026-05-09 06:27 | -9.40717 | 115.79290 | 16871 ft | 435 kts | 271° |
| 2026-05-09 06:28 | -9.40657 | 115.76226 | 16876 ft | 435 kts | 271° |
| 2026-05-09 06:28 | -9.40596 | 115.73166 | 16891 ft | 435 kts | 271° |
| 2026-05-09 06:28 | -9.40535 | 115.70102 | 16867 ft | 435 kts | 271° |
| 2026-05-09 06:28 | -9.40473 | 115.67038 | 16871 ft | 435 kts | 271° |
| 2026-05-09 06:29 | -9.40407 | 115.63975 | 16867 ft | 435 kts | 271° |
| 2026-05-09 06:29 | -9.40339 | 115.60916 | 16866 ft | 435 kts | 271° |
| 2026-05-09 06:29 | -9.40271 | 115.57855 | 16869 ft | 435 kts | 271° |
| 2026-05-09 06:29 | -9.40205 | 115.54792 | 16865 ft | 435 kts | 271° |
| 2026-05-09 06:30 | -9.40144 | 115.51731 | 16870 ft | 435 kts | 271° |
| 2026-05-09 06:30 | -9.40084 | 115.48666 | 16865 ft | 435 kts | 271° |
| 2026-05-09 06:30 | -9.40025 | 115.45606 | 16869 ft | 435 kts | 271° |
| 2026-05-09 06:30 | -9.39963 | 115.42540 | 16866 ft | 435 kts | 271° |
| 2026-05-09 06:31 | -9.39900 | 115.39518 | 16674 ft | 436 kts | 271° |
| 2026-05-09 06:31 | -9.39835 | 115.36441 | 15627 ft | 439 kts | 271° |
| 2026-05-09 06:31 | -9.39776 | 115.33340 | 15031 ft | 431 kts | 271° |
| 2026-05-09 06:31 | -9.39718 | 115.30378 | 14386 ft | 421 kts | 271° |
| 2026-05-09 06:32 | -9.39658 | 115.27425 | 13272 ft | 420 kts | 271° |
| 2026-05-09 06:32 | -9.39599 | 115.24476 | 12513 ft | 417 kts | 271° |
| 2026-05-09 06:32 | -9.39541 | 115.21548 | 11770 ft | 415 kts | 271° |
| 2026-05-09 06:33 | -9.39427 | 115.15831 | 11010 ft | 389 kts | 271° |
| 2026-05-09 06:33 | -9.39372 | 115.13156 | 10884 ft | 372 kts | 271° |
| 2026-05-09 06:33 | -9.39321 | 115.10597 | 10758 ft | 356 kts | 271° |
| 2026-05-09 06:34 | -9.39223 | 115.05790 | 10507 ft | 328 kts | 271° |
| 2026-05-09 06:34 | -9.39175 | 115.03524 | 10380 ft | 316 kts | 271° |
| 2026-05-09 06:34 | -9.39127 | 115.01339 | 10218 ft | 306 kts | 271° |
| 2026-05-09 06:34 | -9.39081 | 114.99199 | 9949 ft | 301 kts | 272° |
| 2026-05-09 06:35 | -9.38670 | 114.97156 | 10006 ft | 299 kts | 295° |
| 2026-05-09 06:35 | -9.37450 | 114.95480 | 9997 ft | 298 kts | 321° |
| 2026-05-09 06:35 | -9.35623 | 114.94510 | 9555 ft | 299 kts | 348° |
| 2026-05-09 06:35 | -9.33571 | 114.94336 | 9173 ft | 295 kts | 359° |
| 2026-05-09 06:36 | -9.31523 | 114.94250 | 8801 ft | 294 kts | 358° |
| 2026-05-09 06:36 | -9.29487 | 114.94154 | 8435 ft | 292 kts | 358° |
| 2026-05-09 06:36 | -9.27463 | 114.94052 | 8070 ft | 291 kts | 358° |
| 2026-05-09 06:36 | -9.25447 | 114.93946 | 7705 ft | 289 kts | 358° |
| 2026-05-09 06:37 | -9.23440 | 114.93840 | 7341 ft | 288 kts | 358° |
| 2026-05-09 06:37 | -9.21446 | 114.93738 | 6980 ft | 286 kts | 359° |
| 2026-05-09 06:37 | -9.19462 | 114.93637 | 6620 ft | 285 kts | 359° |
| 2026-05-09 06:37 | -9.17483 | 114.93535 | 6264 ft | 284 kts | 359° |
| 2026-05-09 06:38 | -9.15518 | 114.93432 | 5914 ft | 282 kts | 359° |
| 2026-05-09 06:38 | -9.13564 | 114.93331 | 5566 ft | 281 kts | 359° |
| 2026-05-09 06:38 | -9.11623 | 114.93234 | 5233 ft | 279 kts | 359° |
| 2026-05-09 06:38 | -9.09692 | 114.93134 | 4880 ft | 277 kts | 359° |
| 2026-05-09 06:39 | -9.07769 | 114.93034 | 4536 ft | 276 kts | 359° |
| 2026-05-09 06:39 | -9.05852 | 114.92932 | 4201 ft | 275 kts | 359° |
| 2026-05-09 06:39 | -9.03972 | 114.92835 | 3933 ft | 272 kts | 359° |
| 2026-05-09 06:39 | -9.02081 | 114.92726 | 3874 ft | 273 kts | 359° |
| 2026-05-09 06:40 | -9.00152 | 114.92610 | 3816 ft | 274 kts | 359° |
| 2026-05-09 06:40 | -8.98273 | 114.92494 | 3757 ft | 274 kts | 359° |
| 2026-05-09 06:40 | -8.96371 | 114.92374 | 3696 ft | 274 kts | 359° |
| 2026-05-09 06:40 | -8.94472 | 114.92253 | 3626 ft | 270 kts | 359° |
| 2026-05-09 06:41 | -8.92656 | 114.92136 | 3570 ft | 253 kts | 359° |
| 2026-05-09 06:41 | -8.90953 | 114.92025 | 3536 ft | 238 kts | 359° |
| 2026-05-09 06:41 | -8.89309 | 114.91920 | 3488 ft | 236 kts | 359° |
| 2026-05-09 06:41 | -8.87674 | 114.91823 | 3431 ft | 235 kts | 359° |
| 2026-05-09 06:42 | -8.86039 | 114.91729 | 3378 ft | 235 kts | 359° |
| 2026-05-09 06:42 | -8.84409 | 114.91633 | 3324 ft | 234 kts | 360° |
| 2026-05-09 06:42 | -8.82789 | 114.91539 | 3268 ft | 230 kts | 359° |
| 2026-05-09 06:42 | -8.81240 | 114.91442 | 3193 ft | 217 kts | 359° |
| 2026-05-09 06:43 | -8.79755 | 114.91349 | 3098 ft | 211 kts | 359° |
| 2026-05-09 06:43 | -8.78339 | 114.91453 | 3042 ft | 196 kts | 19° |
| 2026-05-09 06:43 | -8.77176 | 114.91988 | 3029 ft | 174 kts | 38° |
| 2026-05-09 06:43 | -8.76338 | 114.92770 | 3008 ft | 158 kts | 55° |
| 2026-05-09 06:44 | -8.75795 | 114.93695 | 2919 ft | 150 kts | 70° |
| 2026-05-09 06:44 | -8.75529 | 114.94700 | 2846 ft | 147 kts | 85° |
| 2026-05-09 06:44 | -8.75504 | 114.95729 | 2777 ft | 147 kts | 91° |
| 2026-05-09 06:44 | -8.75511 | 114.96753 | 2738 ft | 146 kts | 91° |
| 2026-05-09 06:45 | -8.75518 | 114.97772 | 2656 ft | 145 kts | 91° |
| 2026-05-09 06:45 | -8.75524 | 114.98790 | 2578 ft | 145 kts | 91° |
| 2026-05-09 06:45 | -8.75523 | 114.99806 | 2497 ft | 145 kts | 90° |
| 2026-05-09 06:45 | -8.75488 | 115.00822 | 2375 ft | 144 kts | 89° |
| 2026-05-09 06:46 | -8.75447 | 115.01829 | 2259 ft | 142 kts | 89° |
| 2026-05-09 06:46 | -8.75405 | 115.02826 | 2145 ft | 142 kts | 90° |
| 2026-05-09 06:46 | -8.75365 | 115.03821 | 2034 ft | 142 kts | 90° |
| 2026-05-09 06:46 | -8.75325 | 115.04817 | 1906 ft | 141 kts | 90° |
| 2026-05-09 06:47 | -8.75284 | 115.05812 | 1812 ft | 141 kts | 90° |
| 2026-05-09 06:47 | -8.75243 | 115.06805 | 1707 ft | 141 kts | 90° |
| 2026-05-09 06:47 | -8.75204 | 115.07783 | 1519 ft | 140 kts | 89° |
| 2026-05-09 06:47 | -8.75164 | 115.08783 | 1330 ft | 141 kts | 91° |
| 2026-05-09 06:48 | -8.75125 | 115.09761 | 1140 ft | 141 kts | 90° |
| 2026-05-09 06:48 | -8.75086 | 115.10758 | 945 ft | 140 kts | 90° |
| 2026-05-09 06:48 | -8.75045 | 115.11736 | 763 ft | 140 kts | 90° |
| 2026-05-09 06:48 | -8.75005 | 115.12715 | 578 ft | 139 kts | 90° |
| 2026-05-09 06:49 | -8.74971 | 115.13694 | 393 ft | 140 kts | 90° |
| 2026-05-09 06:49 | -8.74928 | 115.14661 | 210 ft | 140 kts | 90° |
| 2026-05-09 06:49 | -8.74886 | 115.15642 | 55 ft | 140 kts | 89° |
| 2026-05-09 06:49 | -8.74854 | 115.16568 | 29 ft | 110 kts | 88° |
| 2026-05-09 06:50 | -8.74829 | 115.17162 | 27 ft | 61 kts | 88° |
| 2026-05-09 06:50 | -8.74811 | 115.17321 | 27 ft | 8 kts | 39° |
| 2026-05-09 06:50 | -8.74765 | 115.17318 | 28 ft | 5 kts | 347° |
| 2026-05-09 06:50 | -8.74744 | 115.17315 | 29 ft | 1 kts | 356° |
| 2026-05-09 06:51 | -8.74743 | 115.17315 | 29 ft | 0 kts | 356° |
| 2026-05-09 06:51 | -8.74712 | 115.17314 | 31 ft | 7 kts | 357° |
| 2026-05-09 06:51 | -8.74664 | 115.17298 | 32 ft | 7 kts | 308° |
| 2026-05-09 06:52 | -8.74657 | 115.17250 | 32 ft | 9 kts | 268° |
| 2026-05-09 06:52 | -8.74659 | 115.17178 | 32 ft | 11 kts | 268° |
| 2026-05-09 06:52 | -8.74662 | 115.17098 | 32 ft | 12 kts | 268° |
| 2026-05-09 06:52 | -8.74667 | 115.17011 | 30 ft | 13 kts | 267° |
| 2026-05-09 06:53 | -8.74671 | 115.16917 | 32 ft | 13 kts | 268° |
| 2026-05-09 06:53 | -8.74654 | 115.16875 | 32 ft | 5 kts | 335° |
| 2026-05-09 06:53 | -8.74619 | 115.16871 | 33 ft | 6 kts | 357° |
| 2026-05-09 06:53 | -8.74579 | 115.16869 | 33 ft | 5 kts | 358° |
| 2026-05-09 06:54 | -8.74549 | 115.16868 | 33 ft | 4 kts | 358° |
| 2026-05-09 06:54 | -8.74542 | 115.16868 | 33 ft | 1 kts | 358° |
| 2026-05-09 06:54 | -8.74541 | 115.16868 | 33 ft | 0 kts | 358° |